sensor_id;sensor_type;location;lat;lon;timestamp;temperature;humidity
64855;DHT22;51321;50.428;8.378;2023-05-24T00:02:40;9.00;99.90
64855;DHT22;51321;50.428;8.378;2023-05-24T00:05:24;9.00;99.90
64855;DHT22;51321;50.428;8.378;2023-05-24T00:08:05;9.00;99.90
64855;DHT22;51321;50.428;8.378;2023-05-24T00:10:47;9.00;99.90
64855;DHT22;51321;50.428;8.378;2023-05-24T00:13:28;9.00;99.90
64855;DHT22;51321;50.428;8.378;2023-05-24T00:16:11;8.90;99.90
64855;DHT22;51321;50.428;8.378;2023-05-24T00:18:52;8.80;99.90
64855;DHT22;51321;50.428;8.378;2023-05-24T00:21:34;8.80;99.90
64855;DHT22;51321;50.428;8.378;2023-05-24T00:24:15;9.00;99.90
64855;DHT22;51321;50.428;8.378;2023-05-24T00:26:56;9.00;99.90
64855;DHT22;51321;50.428;8.378;2023-05-24T00:29:37;9.00;99.90
64855;DHT22;51321;50.428;8.378;2023-05-24T00:32:18;8.90;99.90
64855;DHT22;51321;50.428;8.378;2023-05-24T00:35:00;8.90;99.90
64855;DHT22;51321;50.428;8.378;2023-05-24T00:37:42;8.80;99.90
64855;DHT22;51321;50.428;8.378;2023-05-24T00:40:25;8.70;99.90
64855;DHT22;51321;50.428;8.378;2023-05-24T00:43:05;8.60;99.90
64855;DHT22;51321;50.428;8.378;2023-05-24T00:45:46;8.70;99.90
64855;DHT22;51321;50.428;8.378;2023-05-24T00:48:27;8.70;99.90
64855;DHT22;51321;50.428;8.378;2023-05-24T00:51:08;8.80;99.90
64855;DHT22;51321;50.428;8.378;2023-05-24T00:53:52;8.80;99.90
64855;DHT22;51321;50.428;8.378;2023-05-24T00:56:35;8.70;99.90
64855;DHT22;51321;50.428;8.378;2023-05-24T00:59:15;8.60;99.90
64855;DHT22;51321;50.428;8.378;2023-05-24T01:01:57;8.60;99.90
64855;DHT22;51321;50.428;8.378;2023-05-24T01:04:38;8.50;99.90
64855;DHT22;51321;50.428;8.378;2023-05-24T01:07:23;8.60;99.90
64855;DHT22;51321;50.428;8.378;2023-05-24T01:10:15;8.60;99.90
64855;DHT22;51321;50.428;8.378;2023-05-24T01:13:03;8.70;99.90
64855;DHT22;51321;50.428;8.378;2023-05-24T01:15:50;8.80;99.90
64855;DHT22;51321;50.428;8.378;2023-05-24T01:18:34;8.80;99.90
64855;DHT22;51321;50.428;8.378;2023-05-24T01:21:25;9.00;99.90
64855;DHT22;51321;50.428;8.378;2023-05-24T01:24:21;9.20;99.90
64855;DHT22;51321;50.428;8.378;2023-05-24T01:27:08;9.10;99.90
64855;DHT22;51321;50.428;8.378;2023-05-24T01:29:51;9.00;99.90
64855;DHT22;51321;50.428;8.378;2023-05-24T01:32:32;8.90;99.90
64855;DHT22;51321;50.428;8.378;2023-05-24T01:35:13;8.80;99.90
64855;DHT22;51321;50.428;8.378;2023-05-24T01:37:54;8.80;99.90
64855;DHT22;51321;50.428;8.378;2023-05-24T01:40:36;8.80;99.90
64855;DHT22;51321;50.428;8.378;2023-05-24T01:43:25;8.70;99.90
64855;DHT22;51321;50.428;8.378;2023-05-24T01:46:15;8.60;99.90
64855;DHT22;51321;50.428;8.378;2023-05-24T01:49:18;8.60;99.90
64855;DHT22;51321;50.428;8.378;2023-05-24T01:52:05;8.60;99.90
64855;DHT22;51321;50.428;8.378;2023-05-24T01:54:51;8.50;99.90
64855;DHT22;51321;50.428;8.378;2023-05-24T01:57:33;8.30;99.90
64855;DHT22;51321;50.428;8.378;2023-05-24T02:00:17;8.40;99.90
64855;DHT22;51321;50.428;8.378;2023-05-24T02:03:00;8.30;99.90
64855;DHT22;51321;50.428;8.378;2023-05-24T02:05:41;8.20;99.90
64855;DHT22;51321;50.428;8.378;2023-05-24T02:08:24;8.10;99.90
64855;DHT22;51321;50.428;8.378;2023-05-24T02:11:05;8.10;99.90
64855;DHT22;51321;50.428;8.378;2023-05-24T02:13:46;8.00;99.90
64855;DHT22;51321;50.428;8.378;2023-05-24T02:16:28;7.90;99.90
64855;DHT22;51321;50.428;8.378;2023-05-24T02:19:09;7.90;99.90
64855;DHT22;51321;50.428;8.378;2023-05-24T02:21:53;7.80;99.90
64855;DHT22;51321;50.428;8.378;2023-05-24T02:24:34;7.70;99.90
64855;DHT22;51321;50.428;8.378;2023-05-24T02:27:15;7.70;99.90
64855;DHT22;51321;50.428;8.378;2023-05-24T02:29:56;7.60;99.90
64855;DHT22;51321;50.428;8.378;2023-05-24T02:32:43;7.60;99.90
64855;DHT22;51321;50.428;8.378;2023-05-24T02:35:25;7.60;99.90
64855;DHT22;51321;50.428;8.378;2023-05-24T02:38:07;7.60;99.90
64855;DHT22;51321;50.428;8.378;2023-05-24T02:40:47;7.70;99.90
64855;DHT22;51321;50.428;8.378;2023-05-24T02:43:29;7.60;99.90
64855;DHT22;51321;50.428;8.378;2023-05-24T02:46:09;7.50;99.90
64855;DHT22;51321;50.428;8.378;2023-05-24T02:48:52;7.50;99.90
64855;DHT22;51321;50.428;8.378;2023-05-24T02:51:35;7.50;99.90
64855;DHT22;51321;50.428;8.378;2023-05-24T02:54:16;7.40;99.90
64855;DHT22;51321;50.428;8.378;2023-05-24T02:56:57;7.30;99.90
64855;DHT22;51321;50.428;8.378;2023-05-24T02:59:39;7.20;99.90
64855;DHT22;51321;50.428;8.378;2023-05-24T03:02:20;7.20;99.90
64855;DHT22;51321;50.428;8.378;2023-05-24T03:05:03;7.20;99.90
64855;DHT22;51321;50.428;8.378;2023-05-24T03:07:45;7.20;99.90
64855;DHT22;51321;50.428;8.378;2023-05-24T03:10:26;7.10;99.90
64855;DHT22;51321;50.428;8.378;2023-05-24T03:13:07;7.00;99.90
64855;DHT22;51321;50.428;8.378;2023-05-24T03:15:50;6.90;99.90
64855;DHT22;51321;50.428;8.378;2023-05-24T03:18:31;6.90;99.90
64855;DHT22;51321;50.428;8.378;2023-05-24T03:21:13;6.80;99.90
64855;DHT22;51321;50.428;8.378;2023-05-24T03:23:54;6.80;99.90
64855;DHT22;51321;50.428;8.378;2023-05-24T03:26:36;6.80;99.90
64855;DHT22;51321;50.428;8.378;2023-05-24T03:29:17;6.90;99.90
64855;DHT22;51321;50.428;8.378;2023-05-24T03:31:58;6.90;99.90
64855;DHT22;51321;50.428;8.378;2023-05-24T03:34:43;7.30;99.90
64855;DHT22;51321;50.428;8.378;2023-05-24T03:37:25;7.30;99.90
64855;DHT22;51321;50.428;8.378;2023-05-24T03:40:07;7.20;99.90
64855;DHT22;51321;50.428;8.378;2023-05-24T03:43:09;7.00;99.90
64855;DHT22;51321;50.428;8.378;2023-05-24T03:46:10;7.10;99.90
64855;DHT22;51321;50.428;8.378;2023-05-24T03:48:51;7.10;99.90
64855;DHT22;51321;50.428;8.378;2023-05-24T03:51:32;7.30;99.90
64855;DHT22;51321;50.428;8.378;2023-05-24T03:54:17;7.20;99.90
64855;DHT22;51321;50.428;8.378;2023-05-24T03:56:58;7.00;99.90
64855;DHT22;51321;50.428;8.378;2023-05-24T03:59:39;6.90;99.90
64855;DHT22;51321;50.428;8.378;2023-05-24T04:02:20;6.90;99.90
64855;DHT22;51321;50.428;8.378;2023-05-24T04:05:01;7.00;99.90
64855;DHT22;51321;50.428;8.378;2023-05-24T04:07:43;7.20;99.90
64855;DHT22;51321;50.428;8.378;2023-05-24T04:10:27;7.60;99.90
64855;DHT22;51321;50.428;8.378;2023-05-24T04:13:09;7.80;99.90
64855;DHT22;51321;50.428;8.378;2023-05-24T04:15:49;7.80;99.90
64855;DHT22;51321;50.428;8.378;2023-05-24T04:18:30;8.00;99.90
64855;DHT22;51321;50.428;8.378;2023-05-24T04:21:12;8.30;99.90
64855;DHT22;51321;50.428;8.378;2023-05-24T04:23:53;8.30;99.90
64855;DHT22;51321;50.428;8.378;2023-05-24T04:26:36;8.50;99.90
64855;DHT22;51321;50.428;8.378;2023-05-24T04:29:17;8.60;99.90
64855;DHT22;51321;50.428;8.378;2023-05-24T04:31:58;8.60;99.90
64855;DHT22;51321;50.428;8.378;2023-05-24T04:34:40;8.60;99.90
64855;DHT22;51321;50.428;8.378;2023-05-24T04:37:24;8.50;99.90
64855;DHT22;51321;50.428;8.378;2023-05-24T04:40:06;8.60;99.90
64855;DHT22;51321;50.428;8.378;2023-05-24T04:42:49;8.60;99.90
64855;DHT22;51321;50.428;8.378;2023-05-24T04:45:30;8.70;99.90
64855;DHT22;51321;50.428;8.378;2023-05-24T04:48:11;8.80;99.90
64855;DHT22;51321;50.428;8.378;2023-05-24T04:50:53;8.70;99.90
64855;DHT22;51321;50.428;8.378;2023-05-24T04:53:35;8.70;99.90
64855;DHT22;51321;50.428;8.378;2023-05-24T04:56:16;8.80;99.90
64855;DHT22;51321;50.428;8.378;2023-05-24T04:58:59;8.80;99.90
64855;DHT22;51321;50.428;8.378;2023-05-24T05:01:39;8.70;99.90
64855;DHT22;51321;50.428;8.378;2023-05-24T05:04:20;8.90;99.90
64855;DHT22;51321;50.428;8.378;2023-05-24T05:07:01;9.00;99.90
64855;DHT22;51321;50.428;8.378;2023-05-24T05:09:43;9.00;99.90
64855;DHT22;51321;50.428;8.378;2023-05-24T05:12:24;9.10;99.90
64855;DHT22;51321;50.428;8.378;2023-05-24T05:15:08;9.00;99.90
64855;DHT22;51321;50.428;8.378;2023-05-24T05:17:50;9.10;99.90
64855;DHT22;51321;50.428;8.378;2023-05-24T05:20:31;9.20;99.90
64855;DHT22;51321;50.428;8.378;2023-05-24T05:23:11;9.30;99.90
64855;DHT22;51321;50.428;8.378;2023-05-24T05:25:52;9.30;99.90
64855;DHT22;51321;50.428;8.378;2023-05-24T05:28:33;9.50;99.90
64855;DHT22;51321;50.428;8.378;2023-05-24T05:31:17;9.60;99.90
64855;DHT22;51321;50.428;8.378;2023-05-24T05:34:00;9.90;99.90
64855;DHT22;51321;50.428;8.378;2023-05-24T05:36:43;9.90;99.90
64855;DHT22;51321;50.428;8.378;2023-05-24T05:39:24;9.80;99.90
64855;DHT22;51321;50.428;8.378;2023-05-24T05:42:05;10.00;99.90
64855;DHT22;51321;50.428;8.378;2023-05-24T05:44:47;10.30;99.90
64855;DHT22;51321;50.428;8.378;2023-05-24T05:47:31;10.40;99.90
64855;DHT22;51321;50.428;8.378;2023-05-24T05:50:12;10.40;99.90
64855;DHT22;51321;50.428;8.378;2023-05-24T05:52:52;10.50;99.90
64855;DHT22;51321;50.428;8.378;2023-05-24T05:55:34;10.50;99.90
64855;DHT22;51321;50.428;8.378;2023-05-24T05:58:15;10.60;99.90
64855;DHT22;51321;50.428;8.378;2023-05-24T06:00:56;10.90;99.90
64855;DHT22;51321;50.428;8.378;2023-05-24T06:03:38;10.80;99.90
64855;DHT22;51321;50.428;8.378;2023-05-24T06:06:20;11.00;99.90
64855;DHT22;51321;50.428;8.378;2023-05-24T06:09:00;11.30;99.90
64855;DHT22;51321;50.428;8.378;2023-05-24T06:11:42;11.50;99.90
64855;DHT22;51321;50.428;8.378;2023-05-24T06:14:23;11.60;99.90
64855;DHT22;51321;50.428;8.378;2023-05-24T06:17:04;11.80;99.90
64855;DHT22;51321;50.428;8.378;2023-05-24T06:19:46;11.80;99.90
64855;DHT22;51321;50.428;8.378;2023-05-24T06:22:27;11.90;99.90
64855;DHT22;51321;50.428;8.378;2023-05-24T06:25:08;12.00;99.90
64855;DHT22;51321;50.428;8.378;2023-05-24T06:27:53;12.10;99.90
64855;DHT22;51321;50.428;8.378;2023-05-24T06:30:34;12.10;99.90
64855;DHT22;51321;50.428;8.378;2023-05-24T06:33:14;12.20;99.90
64855;DHT22;51321;50.428;8.378;2023-05-24T06:35:57;12.30;99.90
64855;DHT22;51321;50.428;8.378;2023-05-24T06:38:38;12.40;99.90
64855;DHT22;51321;50.428;8.378;2023-05-24T06:41:19;12.70;99.90
64855;DHT22;51321;50.428;8.378;2023-05-24T06:44:00;12.60;99.90
64855;DHT22;51321;50.428;8.378;2023-05-24T06:46:41;12.20;99.90
64855;DHT22;51321;50.428;8.378;2023-05-24T06:49:23;12.00;99.90
64855;DHT22;51321;50.428;8.378;2023-05-24T06:52:05;11.90;99.90
64855;DHT22;51321;50.428;8.378;2023-05-24T06:54:50;11.70;99.90
64855;DHT22;51321;50.428;8.378;2023-05-24T06:57:32;11.80;99.90
64855;DHT22;51321;50.428;8.378;2023-05-24T07:00:16;11.70;99.90
64855;DHT22;51321;50.428;8.378;2023-05-24T07:02:57;11.50;99.90
64855;DHT22;51321;50.428;8.378;2023-05-24T07:05:38;11.40;99.90
64855;DHT22;51321;50.428;8.378;2023-05-24T07:08:20;11.40;99.90
64855;DHT22;51321;50.428;8.378;2023-05-24T07:11:01;11.40;99.90
64855;DHT22;51321;50.428;8.378;2023-05-24T07:13:43;11.30;99.90
64855;DHT22;51321;50.428;8.378;2023-05-24T07:16:24;11.40;99.90
64855;DHT22;51321;50.428;8.378;2023-05-24T07:19:05;11.40;99.90
64855;DHT22;51321;50.428;8.378;2023-05-24T07:21:46;11.50;99.90
64855;DHT22;51321;50.428;8.378;2023-05-24T07:24:28;11.60;99.90
64855;DHT22;51321;50.428;8.378;2023-05-24T07:27:09;11.60;99.90
64855;DHT22;51321;50.428;8.378;2023-05-24T07:29:51;11.50;99.90
64855;DHT22;51321;50.428;8.378;2023-05-24T07:32:32;11.40;99.90
64855;DHT22;51321;50.428;8.378;2023-05-24T07:35:15;11.30;99.90
64855;DHT22;51321;50.428;8.378;2023-05-24T07:37:57;11.30;99.90
64855;DHT22;51321;50.428;8.378;2023-05-24T07:40:39;11.40;99.90
64855;DHT22;51321;50.428;8.378;2023-05-24T07:43:20;11.40;99.90
64855;DHT22;51321;50.428;8.378;2023-05-24T07:46:01;11.50;99.90
64855;DHT22;51321;50.428;8.378;2023-05-24T07:48:42;11.50;99.90
64855;DHT22;51321;50.428;8.378;2023-05-24T07:51:24;11.70;99.90
64855;DHT22;51321;50.428;8.378;2023-05-24T07:54:06;11.50;99.90
64855;DHT22;51321;50.428;8.378;2023-05-24T07:56:49;11.40;99.90
64855;DHT22;51321;50.428;8.378;2023-05-24T07:59:30;11.50;99.90
64855;DHT22;51321;50.428;8.378;2023-05-24T08:02:10;11.80;99.90
64855;DHT22;51321;50.428;8.378;2023-05-24T08:04:54;12.20;99.90
64855;DHT22;51321;50.428;8.378;2023-05-24T08:07:35;12.40;99.90
64855;DHT22;51321;50.428;8.378;2023-05-24T08:10:16;12.90;99.90
64855;DHT22;51321;50.428;8.378;2023-05-24T08:12:58;13.00;99.80
64855;DHT22;51321;50.428;8.378;2023-05-24T08:15:39;13.10;99.90
64855;DHT22;51321;50.428;8.378;2023-05-24T08:18:20;13.30;99.90
64855;DHT22;51321;50.428;8.378;2023-05-24T08:21:01;13.50;99.90
64855;DHT22;51321;50.428;8.378;2023-05-24T08:23:42;13.60;99.90
64855;DHT22;51321;50.428;8.378;2023-05-24T08:26:24;13.30;99.90
64855;DHT22;51321;50.428;8.378;2023-05-24T08:29:07;13.30;99.40
64855;DHT22;51321;50.428;8.378;2023-05-24T08:31:49;13.10;98.80
64855;DHT22;51321;50.428;8.378;2023-05-24T08:34:30;12.80;99.20
64855;DHT22;51321;50.428;8.378;2023-05-24T08:37:11;12.90;99.30
64855;DHT22;51321;50.428;8.378;2023-05-24T08:39:54;13.10;99.80
64855;DHT22;51321;50.428;8.378;2023-05-24T08:42:37;13.30;99.20
64855;DHT22;51321;50.428;8.378;2023-05-24T08:45:21;13.40;98.80
64855;DHT22;51321;50.428;8.378;2023-05-24T08:48:03;13.40;99.20
64855;DHT22;51321;50.428;8.378;2023-05-24T08:50:45;13.30;99.30
64855;DHT22;51321;50.428;8.378;2023-05-24T08:53:26;13.30;98.80
64855;DHT22;51321;50.428;8.378;2023-05-24T08:56:07;13.20;99.40
64855;DHT22;51321;50.428;8.378;2023-05-24T08:58:49;13.30;99.90
64855;DHT22;51321;50.428;8.378;2023-05-24T09:01:33;13.40;99.80
64855;DHT22;51321;50.428;8.378;2023-05-24T09:04:19;13.50;98.20
64855;DHT22;51321;50.428;8.378;2023-05-24T09:07:01;13.90;98.50
64855;DHT22;51321;50.428;8.378;2023-05-24T09:09:44;14.10;99.00
64855;DHT22;51321;50.428;8.378;2023-05-24T09:12:29;14.30;98.50
64855;DHT22;51321;50.428;8.378;2023-05-24T09:15:11;14.30;98.30
64855;DHT22;51321;50.428;8.378;2023-05-24T09:17:53;14.50;98.90
64855;DHT22;51321;50.428;8.378;2023-05-24T09:20:34;14.60;97.60
64855;DHT22;51321;50.428;8.378;2023-05-24T09:23:15;14.50;98.00
64855;DHT22;51321;50.428;8.378;2023-05-24T09:25:56;14.40;98.10
64855;DHT22;51321;50.428;8.378;2023-05-24T09:28:38;14.30;97.40
64855;DHT22;51321;50.428;8.378;2023-05-24T09:31:31;14.40;97.70
64855;DHT22;51321;50.428;8.378;2023-05-24T09:34:15;14.30;97.20
64855;DHT22;51321;50.428;8.378;2023-05-24T09:36:57;13.90;97.30
64855;DHT22;51321;50.428;8.378;2023-05-24T09:39:39;13.50;98.00
64855;DHT22;51321;50.428;8.378;2023-05-24T09:42:23;13.90;98.20
64855;DHT22;51321;50.428;8.378;2023-05-24T09:45:06;14.40;98.00
64855;DHT22;51321;50.428;8.378;2023-05-24T09:47:51;14.90;96.90
64855;DHT22;51321;50.428;8.378;2023-05-24T09:50:34;15.20;96.40
64855;DHT22;51321;50.428;8.378;2023-05-24T09:53:16;15.20;96.40
64855;DHT22;51321;50.428;8.378;2023-05-24T09:55:57;15.40;96.60
64855;DHT22;51321;50.428;8.378;2023-05-24T09:58:38;15.50;95.60
64855;DHT22;51321;50.428;8.378;2023-05-24T10:01:22;15.10;96.80
64855;DHT22;51321;50.428;8.378;2023-05-24T10:04:04;15.00;95.20
64855;DHT22;51321;50.428;8.378;2023-05-24T10:06:48;15.40;95.40
64855;DHT22;51321;50.428;8.378;2023-05-24T10:09:29;15.50;94.00
64855;DHT22;51321;50.428;8.378;2023-05-24T10:12:15;16.00;95.10
64855;DHT22;51321;50.428;8.378;2023-05-24T10:14:57;16.30;94.00
64855;DHT22;51321;50.428;8.378;2023-05-24T10:17:39;16.40;93.50
64855;DHT22;51321;50.428;8.378;2023-05-24T10:20:21;16.60;92.40
64855;DHT22;51321;50.428;8.378;2023-05-24T10:23:06;16.60;91.80
64855;DHT22;51321;50.428;8.378;2023-05-24T10:25:53;15.60;91.90
64855;DHT22;51321;50.428;8.378;2023-05-24T10:28:37;14.80;93.20
64855;DHT22;51321;50.428;8.378;2023-05-24T10:31:23;15.00;94.10
64855;DHT22;51321;50.428;8.378;2023-05-24T10:34:05;15.00;93.10
64855;DHT22;51321;50.428;8.378;2023-05-24T10:36:47;14.80;94.10
64855;DHT22;51321;50.428;8.378;2023-05-24T10:39:32;14.80;93.70
64855;DHT22;51321;50.428;8.378;2023-05-24T10:42:13;14.80;94.10
64855;DHT22;51321;50.428;8.378;2023-05-24T10:44:57;14.90;95.10
64855;DHT22;51321;50.428;8.378;2023-05-24T10:47:38;14.90;94.60
64855;DHT22;51321;50.428;8.378;2023-05-24T10:50:21;15.00;94.50
64855;DHT22;51321;50.428;8.378;2023-05-24T10:53:13;15.10;95.40
64855;DHT22;51321;50.428;8.378;2023-05-24T10:55:58;15.30;94.90
64855;DHT22;51321;50.428;8.378;2023-05-24T10:58:57;15.30;95.10
64855;DHT22;51321;50.428;8.378;2023-05-24T11:01:38;15.60;95.50
64855;DHT22;51321;50.428;8.378;2023-05-24T11:04:21;15.80;94.00
64855;DHT22;51321;50.428;8.378;2023-05-24T11:07:05;15.80;93.80
64855;DHT22;51321;50.428;8.378;2023-05-24T11:09:48;16.00;94.80
64855;DHT22;51321;50.428;8.378;2023-05-24T11:12:38;16.20;94.30
64855;DHT22;51321;50.428;8.378;2023-05-24T11:15:23;16.20;92.70
64855;DHT22;51321;50.428;8.378;2023-05-24T11:18:21;16.30;93.10
64855;DHT22;51321;50.428;8.378;2023-05-24T11:21:05;15.90;92.60
64855;DHT22;51321;50.428;8.378;2023-05-24T11:23:48;15.90;93.30
64855;DHT22;51321;50.428;8.378;2023-05-24T11:26:29;15.90;93.60
64855;DHT22;51321;50.428;8.378;2023-05-24T11:29:14;16.10;93.30
64855;DHT22;51321;50.428;8.378;2023-05-24T11:31:57;16.10;92.40
64855;DHT22;51321;50.428;8.378;2023-05-24T11:34:43;16.10;92.30
64855;DHT22;51321;50.428;8.378;2023-05-24T11:37:24;16.00;92.70
64855;DHT22;51321;50.428;8.378;2023-05-24T11:40:07;16.10;92.60
64855;DHT22;51321;50.428;8.378;2023-05-24T11:42:49;16.00;92.80
64855;DHT22;51321;50.428;8.378;2023-05-24T11:45:33;15.50;93.10
64855;DHT22;51321;50.428;8.378;2023-05-24T11:48:14;15.00;93.00
64855;DHT22;51321;50.428;8.378;2023-05-24T11:50:55;14.90;94.80
64855;DHT22;51321;50.428;8.378;2023-05-24T11:53:38;15.10;94.40
64855;DHT22;51321;50.428;8.378;2023-05-24T11:56:19;15.60;92.80
64855;DHT22;51321;50.428;8.378;2023-05-24T11:59:08;15.80;93.30
64855;DHT22;51321;50.428;8.378;2023-05-24T12:01:56;15.60;93.10
64855;DHT22;51321;50.428;8.378;2023-05-24T12:04:39;15.30;91.40
64855;DHT22;51321;50.428;8.378;2023-05-24T12:07:22;15.00;92.60
64855;DHT22;51321;50.428;8.378;2023-05-24T12:10:04;14.50;93.70
64855;DHT22;51321;50.428;8.378;2023-05-24T12:12:46;14.30;94.40
64855;DHT22;51321;50.428;8.378;2023-05-24T12:15:27;14.40;94.90
64855;DHT22;51321;50.428;8.378;2023-05-24T12:18:18;14.50;95.10
64855;DHT22;51321;50.428;8.378;2023-05-24T12:20:59;14.60;95.50
64855;DHT22;51321;50.428;8.378;2023-05-24T12:23:40;14.70;94.10
64855;DHT22;51321;50.428;8.378;2023-05-24T12:26:21;14.80;95.20
64855;DHT22;51321;50.428;8.378;2023-05-24T12:29:03;14.60;93.10
64855;DHT22;51321;50.428;8.378;2023-05-24T12:31:46;14.60;93.40
64855;DHT22;51321;50.428;8.378;2023-05-24T12:34:29;14.50;92.50
64855;DHT22;51321;50.428;8.378;2023-05-24T12:37:11;14.40;92.80
64855;DHT22;51321;50.428;8.378;2023-05-24T12:39:52;14.40;93.00
64855;DHT22;51321;50.428;8.378;2023-05-24T12:42:33;14.40;93.40
64855;DHT22;51321;50.428;8.378;2023-05-24T12:45:15;14.50;93.50
64855;DHT22;51321;50.428;8.378;2023-05-24T12:48:04;14.30;93.90
64855;DHT22;51321;50.428;8.378;2023-05-24T12:50:47;14.20;94.20
64855;DHT22;51321;50.428;8.378;2023-05-24T12:53:29;14.10;93.10
64855;DHT22;51321;50.428;8.378;2023-05-24T12:56:10;14.10;94.10
64855;DHT22;51321;50.428;8.378;2023-05-24T12:58:51;14.10;93.20
64855;DHT22;51321;50.428;8.378;2023-05-24T13:01:34;14.20;93.30
64855;DHT22;51321;50.428;8.378;2023-05-24T13:04:15;14.30;93.50
64855;DHT22;51321;50.428;8.378;2023-05-24T13:06:57;14.40;94.30
64855;DHT22;51321;50.428;8.378;2023-05-24T13:09:38;14.50;93.20
64855;DHT22;51321;50.428;8.378;2023-05-24T13:12:20;14.50;93.20
64855;DHT22;51321;50.428;8.378;2023-05-24T13:15:01;14.70;95.60
64855;DHT22;51321;50.428;8.378;2023-05-24T13:17:43;14.90;94.80
64855;DHT22;51321;50.428;8.378;2023-05-24T13:20:23;14.90;95.90
64855;DHT22;51321;50.428;8.378;2023-05-24T13:23:05;14.60;94.60
64855;DHT22;51321;50.428;8.378;2023-05-24T13:25:46;14.50;94.30
64855;DHT22;51321;50.428;8.378;2023-05-24T13:28:29;14.50;94.20
64855;DHT22;51321;50.428;8.378;2023-05-24T13:31:10;14.40;94.30
64855;DHT22;51321;50.428;8.378;2023-05-24T13:33:53;14.60;94.10
64855;DHT22;51321;50.428;8.378;2023-05-24T13:36:34;14.90;93.30
64855;DHT22;51321;50.428;8.378;2023-05-24T13:39:18;15.20;93.30
64855;DHT22;51321;50.428;8.378;2023-05-24T13:41:59;15.40;92.60
64855;DHT22;51321;50.428;8.378;2023-05-24T13:44:40;15.50;92.80
64855;DHT22;51321;50.428;8.378;2023-05-24T13:47:21;15.50;93.00
64855;DHT22;51321;50.428;8.378;2023-05-24T13:50:04;15.40;92.00
64855;DHT22;51321;50.428;8.378;2023-05-24T13:52:45;15.50;92.70
64855;DHT22;51321;50.428;8.378;2023-05-24T13:55:28;15.70;91.40
64855;DHT22;51321;50.428;8.378;2023-05-24T13:58:09;15.70;91.90
64855;DHT22;51321;50.428;8.378;2023-05-24T14:00:51;15.70;90.70
64855;DHT22;51321;50.428;8.378;2023-05-24T14:03:32;16.10;91.70
64855;DHT22;51321;50.428;8.378;2023-05-24T14:06:14;16.50;91.60
64855;DHT22;51321;50.428;8.378;2023-05-24T14:08:55;16.60;90.80
64855;DHT22;51321;50.428;8.378;2023-05-24T14:11:38;16.30;90.80
64855;DHT22;51321;50.428;8.378;2023-05-24T14:14:19;16.00;90.20
64855;DHT22;51321;50.428;8.378;2023-05-24T14:17:00;15.80;90.10
64855;DHT22;51321;50.428;8.378;2023-05-24T14:19:41;15.90;90.70
64855;DHT22;51321;50.428;8.378;2023-05-24T14:22:22;16.20;91.30
64855;DHT22;51321;50.428;8.378;2023-05-24T14:25:06;16.30;90.80
64855;DHT22;51321;50.428;8.378;2023-05-24T14:27:49;16.20;90.50
64855;DHT22;51321;50.428;8.378;2023-05-24T14:30:30;16.10;90.00
64855;DHT22;51321;50.428;8.378;2023-05-24T14:33:11;16.20;90.20
64855;DHT22;51321;50.428;8.378;2023-05-24T14:35:52;16.30;90.00
64855;DHT22;51321;50.428;8.378;2023-05-24T14:38:33;16.50;87.90
64855;DHT22;51321;50.428;8.378;2023-05-24T14:41:14;16.30;88.50
64855;DHT22;51321;50.428;8.378;2023-05-24T14:43:56;15.90;90.30
64855;DHT22;51321;50.428;8.378;2023-05-24T14:46:39;15.60;88.00
64855;DHT22;51321;50.428;8.378;2023-05-24T14:49:20;15.40;87.10
64855;DHT22;51321;50.428;8.378;2023-05-24T14:52:02;15.30;88.70
64855;DHT22;51321;50.428;8.378;2023-05-24T14:54:42;15.50;88.80
64855;DHT22;51321;50.428;8.378;2023-05-24T14:57:24;15.60;88.00
64855;DHT22;51321;50.428;8.378;2023-05-24T15:00:08;15.80;90.10
64855;DHT22;51321;50.428;8.378;2023-05-24T15:02:48;16.00;90.00
64855;DHT22;51321;50.428;8.378;2023-05-24T15:05:30;16.00;89.90
64855;DHT22;51321;50.428;8.378;2023-05-24T15:08:11;16.40;87.20
64855;DHT22;51321;50.428;8.378;2023-05-24T15:10:52;16.90;87.10
64855;DHT22;51321;50.428;8.378;2023-05-24T15:13:33;17.00;87.20
64855;DHT22;51321;50.428;8.378;2023-05-24T15:16:15;17.60;85.90
64855;DHT22;51321;50.428;8.378;2023-05-24T15:18:57;18.50;87.60
64855;DHT22;51321;50.428;8.378;2023-05-24T15:21:38;18.30;81.90
64855;DHT22;51321;50.428;8.378;2023-05-24T15:24:20;17.40;82.00
64855;DHT22;51321;50.428;8.378;2023-05-24T15:27:01;16.60;86.30
64855;DHT22;51321;50.428;8.378;2023-05-24T15:29:43;16.20;86.60
64855;DHT22;51321;50.428;8.378;2023-05-24T15:32:25;15.70;87.00
64855;DHT22;51321;50.428;8.378;2023-05-24T15:35:06;15.50;89.60
64855;DHT22;51321;50.428;8.378;2023-05-24T15:37:47;15.50;90.60
64855;DHT22;51321;50.428;8.378;2023-05-24T15:40:28;15.40;89.50
64855;DHT22;51321;50.428;8.378;2023-05-24T15:43:09;15.50;89.70
64855;DHT22;51321;50.428;8.378;2023-05-24T15:45:50;15.60;87.70
64855;DHT22;51321;50.428;8.378;2023-05-24T15:48:33;15.40;88.80
64855;DHT22;51321;50.428;8.378;2023-05-24T15:51:14;15.20;89.90
64855;DHT22;51321;50.428;8.378;2023-05-24T15:53:55;15.20;88.70
64855;DHT22;51321;50.428;8.378;2023-05-24T15:56:35;15.00;90.50
64855;DHT22;51321;50.428;8.378;2023-05-24T15:59:16;15.00;89.90
64855;DHT22;51321;50.428;8.378;2023-05-24T16:01:57;15.10;90.20
64855;DHT22;51321;50.428;8.378;2023-05-24T16:04:39;15.30;90.10
64855;DHT22;51321;50.428;8.378;2023-05-24T16:07:20;15.60;89.80
64855;DHT22;51321;50.428;8.378;2023-05-24T16:10:01;15.90;90.00
64855;DHT22;51321;50.428;8.378;2023-05-24T16:12:43;16.10;89.00
64855;DHT22;51321;50.428;8.378;2023-05-24T16:15:24;16.10;90.10
64855;DHT22;51321;50.428;8.378;2023-05-24T16:18:08;16.10;90.10
64855;DHT22;51321;50.428;8.378;2023-05-24T16:20:50;15.80;89.50
64855;DHT22;51321;50.428;8.378;2023-05-24T16:23:32;15.50;87.30
64855;DHT22;51321;50.428;8.378;2023-05-24T16:26:13;15.50;88.50
64855;DHT22;51321;50.428;8.378;2023-05-24T16:28:54;15.50;89.00
64855;DHT22;51321;50.428;8.378;2023-05-24T16:31:35;15.40;88.10
64855;DHT22;51321;50.428;8.378;2023-05-24T16:34:16;15.40;89.50
64855;DHT22;51321;50.428;8.378;2023-05-24T16:36:58;15.50;90.20
64855;DHT22;51321;50.428;8.378;2023-05-24T16:39:39;15.70;90.10
64855;DHT22;51321;50.428;8.378;2023-05-24T16:42:20;15.80;90.60
64855;DHT22;51321;50.428;8.378;2023-05-24T16:45:01;15.60;90.40
64855;DHT22;51321;50.428;8.378;2023-05-24T16:47:42;15.30;91.30
64855;DHT22;51321;50.428;8.378;2023-05-24T16:50:23;15.20;91.70
64855;DHT22;51321;50.428;8.378;2023-05-24T16:53:06;15.10;91.90
64855;DHT22;51321;50.428;8.378;2023-05-24T16:55:47;14.90;92.10
64855;DHT22;51321;50.428;8.378;2023-05-24T16:58:31;14.90;92.50
64855;DHT22;51321;50.428;8.378;2023-05-24T17:01:12;14.80;92.40
64855;DHT22;51321;50.428;8.378;2023-05-24T17:03:53;14.70;92.10
64855;DHT22;51321;50.428;8.378;2023-05-24T17:06:34;14.50;92.20
64855;DHT22;51321;50.428;8.378;2023-05-24T17:09:16;14.40;92.00
64855;DHT22;51321;50.428;8.378;2023-05-24T17:11:58;14.40;92.70